Main page
METAR-TAF:

METAR-TAF

Airports :

Landsberg, Germany

Landsberg-Lech Air Base

latitude: 48-04N, longitude: 010-54E, elevation: 623 m

Current weather observation

The report was made 35 minutes ago, at 03:50 UTC
Wind 4 kt from the West/Southwest
Temperature 1°C
Humidity 100%
Pressure 1022 hPa
Visibility: 0500 m
fog

METAR: ETSA 180350Z 25004KT 0500 FG VV000 01/01 Q1022 RED

Time: 05:25 (04:25 UTC)

Forecast

The report was made 11 hours and 8 minutes ago, at 17:17 UTC
Forecast valid from 17 at 18 UTC to 18 at 06 UTC
Wind 3 kt from variable directions
Visibility: 5000 m
Overcast at a height of 1000 ft
mist
Temporary
from 17 at 18 UTC to 18 at 06 UTC
Wind 5 kt from the East/Southeast
Visibility: 2500 m
Overcast at a height of 500 ft
drizzle

TAF: ETSA 171717Z 1718/1806 VRB03KT 5000 BR OVC010 TEMPO 1718/1806 11005KT 2500 DZ OVC005 BY ETGL

Weather observations and forecasts of more than 4000 airports (METAR and TAF reports).

The available stations are represented by yellow and red dots on the map.

Hover mouse over dot to see the name of the station.

Then click to see weather observations and forecasts.

To change the map : click on the green buttons with a black cross to zoom in, on the green button with a dash to zoom out, or on the green arrows for adjacent maps.


METAR-TAF: